createdAt,value
2023-07-17T00:01:11.110Z,90.55
2023-07-17T00:02:11.102Z,90.79
2023-07-17T00:04:15.588Z,90.98
2023-07-17T00:05:15.149Z,91.13
2023-07-17T00:07:08.372Z,91.17
2023-07-17T00:08:08.388Z,91.80
2023-07-17T00:10:12.914Z,91.80
2023-07-17T00:11:12.447Z,91.61
2023-07-17T00:13:16.476Z,91.42
2023-07-17T00:14:16.492Z,91.42
2023-07-17T00:16:21.028Z,91.13
2023-07-17T00:17:20.584Z,90.84
2023-07-17T00:19:24.606Z,91.80
2023-07-17T00:20:24.622Z,92.09
2023-07-17T00:22:18.093Z,91.90
2023-07-17T00:23:17.619Z,91.80
2023-07-17T00:25:21.619Z,92.47
2023-07-17T00:26:21.631Z,92.67
2023-07-17T00:28:26.122Z,92.86
2023-07-17T00:29:25.703Z,93.15
2023-07-17T00:31:29.738Z,93.15
2023-07-17T00:32:29.743Z,92.86
2023-07-17T00:34:34.236Z,93.05
2023-07-17T00:35:33.793Z,93.63
2023-07-17T00:37:37.829Z,93.87
2023-07-17T00:38:37.848Z,93.58
2023-07-17T00:40:31.324Z,93.58
2023-07-17T00:41:31.016Z,93.53
2023-07-17T00:43:35.041Z,93.68
2023-07-17T00:44:35.089Z,93.77
2023-07-17T00:46:39.593Z,93.77
2023-07-17T00:47:39.170Z,93.39
2023-07-17T00:49:43.144Z,94.16
2023-07-17T00:50:43.164Z,94.26
2023-07-17T00:51:43.190Z,93.96
2023-07-17T00:52:43.244Z,94.35
2023-07-17T00:53:43.242Z,94.16
2023-07-17T00:54:43.270Z,94.73
2023-07-17T00:55:43.297Z,94.83
2023-07-17T00:56:43.345Z,94.06
2023-07-17T00:57:43.352Z,93.87
2023-07-17T00:58:43.384Z,93.96
2023-07-17T00:59:43.431Z,94.83
2023-07-17T01:00:43.482Z,94.93
2023-07-17T01:01:43.475Z,95.03
2023-07-17T01:02:43.645Z,94.73
2023-07-17T01:03:43.518Z,94.83
2023-07-17T01:04:43.548Z,94.73
2023-07-17T01:05:43.574Z,94.73
2023-07-17T01:06:43.604Z,94.73
2023-07-17T01:07:43.629Z,94.83
2023-07-17T01:08:43.653Z,93.96
2023-07-17T01:09:43.687Z,93.91
2023-07-17T01:10:43.711Z,95.03
2023-07-17T01:11:43.741Z,94.54
2023-07-17T01:12:43.765Z,94.73
2023-07-17T01:13:43.806Z,94.54
2023-07-17T01:14:43.841Z,94.64
2023-07-17T01:15:43.882Z,94.83
2023-07-17T01:16:43.957Z,94.45
2023-07-17T01:17:43.957Z,94.64
2023-07-17T01:18:43.974Z,94.64
2023-07-17T01:19:43.981Z,95.17
2023-07-17T01:20:43.993Z,95.21
2023-07-17T01:21:44.036Z,95.21
2023-07-17T01:22:44.088Z,95.12
2023-07-17T01:23:44.079Z,95.31
2023-07-17T01:24:44.102Z,94.59
2023-07-17T01:25:44.216Z,94.30
2023-07-17T01:26:44.152Z,94.98
2023-07-17T01:27:44.183Z,94.01
2023-07-17T01:28:44.212Z,93.82
2023-07-17T01:29:44.250Z,94.21
2023-07-17T01:30:44.308Z,93.63
2023-07-17T01:31:44.311Z,93.82
2023-07-17T01:32:44.391Z,93.53
2023-07-17T01:33:44.370Z,92.96
2023-07-17T01:34:44.393Z,93.24
2023-07-17T01:35:44.420Z,93.10
2023-07-17T01:36:44.435Z,92.86
2023-07-17T01:37:44.468Z,93.82
2023-07-17T01:38:44.487Z,93.15
2023-07-17T01:39:44.522Z,93.15
2023-07-17T01:40:44.543Z,92.96
2023-07-17T01:41:44.576Z,93.05
2023-07-17T01:42:44.605Z,92.96
2023-07-17T01:43:44.630Z,92.38
2023-07-17T01:44:44.654Z,92.38
2023-07-17T01:45:44.681Z,92.19
2023-07-17T01:46:44.765Z,92.76
2023-07-17T01:47:44.779Z,92.81
2023-07-17T01:48:44.779Z,94.06
2023-07-17T01:49:44.795Z,94.54
2023-07-17T01:50:44.833Z,94.83
2023-07-17T01:51:44.868Z,93.96
2023-07-17T01:52:44.888Z,94.45
2023-07-17T01:53:44.911Z,94.93
2023-07-17T01:54:44.936Z,95.50
2023-07-17T01:55:44.960Z,95.31
2023-07-17T01:56:45.000Z,95.75
2023-07-17T01:57:45.025Z,96.13
2023-07-17T01:58:45.043Z,96.32
2023-07-17T01:59:45.070Z,97.57
2023-07-17T02:00:45.115Z,98.05
2023-07-17T02:01:45.250Z,98.05
2023-07-17T02:02:45.197Z,98.24
2023-07-17T02:03:45.199Z,98.82
2023-07-17T02:04:45.250Z,98.63
2023-07-17T02:05:45.236Z,99.49
2023-07-17T02:06:45.271Z,99.49
2023-07-17T02:07:45.291Z,99.68
2023-07-17T02:08:45.325Z,99.87
2023-07-17T02:09:45.362Z,99.58
2023-07-17T02:10:45.372Z,99.68
2023-07-17T02:11:45.406Z,99.99
2023-07-17T02:12:45.435Z,99.99
2023-07-17T02:13:45.463Z,99.87
2023-07-17T02:14:45.486Z,99.97
2023-07-17T02:15:45.514Z,99.58
2023-07-17T02:16:45.569Z,99.99
2023-07-17T02:17:45.596Z,99.97
2023-07-17T02:18:45.603Z,99.99
2023-07-17T02:19:45.621Z,99.78
2023-07-17T02:20:45.650Z,99.97
2023-07-17T02:21:45.675Z,99.99
2023-07-17T02:22:45.726Z,99.99
2023-07-17T02:23:45.734Z,99.99
2023-07-17T02:24:45.765Z,99.99
2023-07-17T02:25:45.796Z,99.99
2023-07-17T02:26:45.819Z,99.99
2023-07-17T02:27:45.841Z,99.99
2023-07-17T02:28:45.866Z,99.99
2023-07-17T02:29:45.894Z,99.99
2023-07-17T02:30:45.923Z,99.99
2023-07-17T02:31:45.957Z,99.99
2023-07-17T02:32:45.997Z,99.99
2023-07-17T02:33:46.005Z,99.99
2023-07-17T02:34:46.035Z,99.87
2023-07-17T02:35:46.060Z,99.99
2023-07-17T02:36:46.085Z,99.99
2023-07-17T02:37:46.132Z,99.99
2023-07-17T02:38:46.141Z,99.99
2023-07-17T02:39:46.180Z,99.99
2023-07-17T02:40:46.211Z,99.99
2023-07-17T02:41:46.224Z,99.99
2023-07-17T02:42:46.250Z,99.99
2023-07-17T02:43:46.290Z,99.99
2023-07-17T02:44:46.314Z,99.99
2023-07-17T02:45:46.363Z,99.99
2023-07-17T02:46:46.363Z,99.99
2023-07-17T02:47:46.443Z,99.99
2023-07-17T02:48:46.415Z,99.99
2023-07-17T02:49:46.450Z,99.99
2023-07-17T02:50:46.477Z,99.99
2023-07-17T02:51:46.534Z,99.99
2023-07-17T02:52:46.543Z,99.99
2023-07-17T02:53:46.564Z,99.99
2023-07-17T02:54:46.602Z,99.99
2023-07-17T02:55:46.606Z,99.99
2023-07-17T02:56:46.635Z,99.99
2023-07-17T02:57:46.667Z,99.99
2023-07-17T02:58:46.690Z,99.99
2023-07-17T02:59:46.717Z,99.99
2023-07-17T03:00:46.756Z,99.99
2023-07-17T03:01:46.839Z,99.99
2023-07-17T03:02:46.859Z,99.99
2023-07-17T03:03:46.851Z,99.99
2023-07-17T03:04:46.854Z,99.99
2023-07-17T03:05:47.046Z,99.99
2023-07-17T03:06:46.908Z,99.99
2023-07-17T03:07:46.935Z,99.99
2023-07-17T03:08:46.965Z,99.99
2023-07-17T03:09:48.372Z,99.99
2023-07-17T03:10:47.022Z,99.99
2023-07-17T03:11:47.050Z,99.99
2023-07-17T03:12:47.071Z,99.99
2023-07-17T03:13:47.116Z,99.99
2023-07-17T03:14:47.129Z,99.99
2023-07-17T03:15:47.195Z,99.99
2023-07-17T03:16:47.184Z,99.99
2023-07-17T03:17:47.302Z,99.99
2023-07-17T03:18:47.234Z,99.99
2023-07-17T03:19:47.261Z,99.99
2023-07-17T03:20:47.291Z,99.99
2023-07-17T03:21:47.329Z,99.99
2023-07-17T03:22:47.372Z,99.99
2023-07-17T03:23:47.372Z,99.99
2023-07-17T03:24:47.404Z,99.99
2023-07-17T03:25:47.427Z,99.99
2023-07-17T03:26:47.458Z,99.99
2023-07-17T03:27:47.489Z,99.99
2023-07-17T03:28:47.523Z,99.99
2023-07-17T03:29:47.535Z,99.99
2023-07-17T03:30:47.581Z,99.99
2023-07-17T03:31:47.639Z,99.99
2023-07-17T03:32:47.696Z,99.99
2023-07-17T03:33:48.205Z,99.99
2023-07-17T03:34:47.672Z,99.99
2023-07-17T03:35:47.703Z,99.99
2023-07-17T03:36:47.730Z,99.99
2023-07-17T03:37:47.758Z,99.99
2023-07-17T03:38:47.784Z,99.99
2023-07-17T03:39:47.807Z,99.99
2023-07-17T03:40:47.841Z,99.99
2023-07-17T03:41:47.860Z,99.99
2023-07-17T03:42:47.915Z,99.99
2023-07-17T03:43:47.929Z,99.99
2023-07-17T03:44:47.946Z,99.99
2023-07-17T03:45:47.975Z,99.99
2023-07-17T03:46:48.125Z,99.99
2023-07-17T03:47:48.057Z,99.99
2023-07-17T03:48:48.063Z,99.99
2023-07-17T03:49:48.082Z,99.99
2023-07-17T03:50:48.120Z,99.99
2023-07-17T03:51:48.143Z,99.99
2023-07-17T03:52:48.170Z,99.99
2023-07-17T03:53:48.204Z,99.99
2023-07-17T03:54:48.222Z,99.99
2023-07-17T03:55:48.249Z,99.99
2023-07-17T03:56:48.287Z,99.99
2023-07-17T03:57:48.305Z,99.99
2023-07-17T03:58:48.343Z,99.99
2023-07-17T03:59:48.365Z,99.99
2023-07-17T04:00:48.421Z,99.99
2023-07-17T04:01:48.459Z,99.99
2023-07-17T04:02:48.474Z,99.99
2023-07-17T04:03:50.963Z,99.99
2023-07-17T04:04:48.501Z,99.99
2023-07-17T04:05:48.535Z,99.99
2023-07-17T04:06:48.557Z,99.99
2023-07-17T04:07:48.609Z,99.99
2023-07-17T04:08:48.603Z,99.99
2023-07-17T04:09:48.633Z,99.99
2023-07-17T04:10:48.657Z,99.99
2023-07-17T04:11:48.696Z,99.99
2023-07-17T04:12:48.720Z,99.99
2023-07-17T04:13:48.743Z,99.99
2023-07-17T04:14:48.770Z,99.99
2023-07-17T04:15:48.802Z,99.99
2023-07-17T04:16:48.882Z,99.99
2023-07-17T04:17:48.896Z,99.99
2023-07-17T04:18:48.885Z,99.99
2023-07-17T04:19:48.903Z,99.99
2023-07-17T04:20:48.931Z,99.99
2023-07-17T04:21:48.956Z,99.99
2023-07-17T04:22:48.995Z,99.99
2023-07-17T04:23:49.042Z,99.99
2023-07-17T04:24:49.063Z,99.99
2023-07-17T04:25:49.068Z,99.99
2023-07-17T04:26:49.096Z,99.99
2023-07-17T04:27:49.125Z,99.99
2023-07-17T04:28:49.157Z,99.99
2023-07-17T04:29:49.174Z,99.99
2023-07-17T04:30:49.271Z,99.99
2023-07-17T04:31:49.245Z,99.99
2023-07-17T04:32:49.337Z,99.99
2023-07-17T04:33:49.280Z,99.99
2023-07-17T04:34:49.312Z,99.99
2023-07-17T04:35:49.347Z,99.83
2023-07-17T04:36:49.370Z,99.83
2023-07-17T04:37:49.406Z,99.63
2023-07-17T04:38:49.451Z,99.99
2023-07-17T04:39:49.465Z,99.54
2023-07-17T04:40:49.488Z,99.35
2023-07-17T04:41:49.512Z,99.44
2023-07-17T04:42:49.541Z,99.44
2023-07-17T04:43:49.564Z,99.54
2023-07-17T04:44:49.593Z,99.73
2023-07-17T04:45:49.624Z,99.35
2023-07-17T04:46:49.720Z,99.25
2023-07-17T04:47:49.705Z,99.35
2023-07-17T04:48:49.699Z,99.06
2023-07-17T04:49:49.727Z,99.25
2023-07-17T04:50:49.768Z,99.15
2023-07-17T04:51:49.790Z,99.44
2023-07-17T04:52:49.820Z,99.54
2023-07-17T04:53:49.871Z,99.63
2023-07-17T04:54:49.899Z,99.63
2023-07-17T04:55:49.978Z,99.99
2023-07-17T04:56:49.919Z,99.59
2023-07-17T04:57:49.962Z,98.91
2023-07-17T04:58:49.978Z,98.44
2023-07-17T04:59:50.025Z,97.38
2023-07-17T05:00:50.155Z,96.80
2023-07-17T05:01:50.073Z,96.22
2023-07-17T05:02:50.222Z,95.55
2023-07-17T05:03:50.187Z,95.84
2023-07-17T05:04:50.159Z,95.65
2023-07-17T05:05:50.227Z,95.75
2023-07-17T05:06:50.203Z,94.78
2023-07-17T05:07:50.238Z,94.98
2023-07-17T05:08:50.260Z,95.17
2023-07-17T05:09:50.288Z,95.17
2023-07-17T05:10:50.321Z,94.78
2023-07-17T05:11:50.344Z,94.68
2023-07-17T05:12:50.373Z,94.59
2023-07-17T05:13:50.400Z,94.11
2023-07-17T05:14:50.433Z,94.59
2023-07-17T05:15:50.455Z,94.59
2023-07-17T05:16:50.575Z,94.78
2023-07-17T05:17:50.565Z,94.11
2023-07-17T05:18:50.552Z,94.01
2023-07-17T05:19:50.579Z,93.82
2023-07-17T05:20:50.595Z,94.01
2023-07-17T05:21:50.625Z,94.30
2023-07-17T05:22:50.724Z,94.21
2023-07-17T05:23:50.685Z,94.40
2023-07-17T05:24:50.710Z,93.44
2023-07-17T05:25:50.737Z,93.24
2023-07-17T05:26:50.763Z,94.30
2023-07-17T05:27:50.788Z,93.87
2023-07-17T05:28:50.844Z,92.18
2023-07-17T05:29:50.854Z,88.60
2023-07-17T05:30:50.899Z,86.33
2023-07-17T05:31:50.908Z,82.71
2023-07-17T05:32:50.971Z,81.30
2023-07-17T05:33:50.970Z,78.83
2023-07-17T05:34:51.027Z,77.51
2023-07-17T05:35:51.027Z,74.79
2023-07-17T05:36:51.053Z,73.14
2023-07-17T05:37:51.079Z,72.79
2023-07-17T05:38:51.110Z,72.05
2023-07-17T05:39:51.142Z,70.89
2023-07-17T05:40:51.174Z,69.47
2023-07-17T05:41:51.215Z,68.73
2023-07-17T05:42:51.269Z,67.18
2023-07-17T05:43:51.277Z,66.14
2023-07-17T05:44:51.304Z,65.85
2023-07-17T05:45:51.333Z,65.20
2023-07-17T05:46:51.413Z,64.65
2023-07-17T05:47:51.437Z,63.78
2023-07-17T05:48:51.428Z,62.62
2023-07-17T05:49:51.461Z,61.77
2023-07-17T05:50:51.496Z,61.00
2023-07-17T05:51:51.534Z,61.00
2023-07-17T05:52:51.592Z,60.90
2023-07-17T05:53:51.593Z,60.61
2023-07-17T05:54:51.625Z,60.05
2023-07-17T05:55:51.658Z,60.15
2023-07-17T05:56:51.693Z,60.25
2023-07-17T05:57:51.736Z,60.05
2023-07-17T05:58:51.763Z,60.86
2023-07-17T05:59:51.797Z,59.99
2023-07-17T06:00:51.830Z,58.72
2023-07-17T06:01:51.908Z,58.82
2023-07-17T06:02:51.956Z,59.18
2023-07-17T06:03:51.988Z,58.79
2023-07-17T06:04:52.018Z,58.69
2023-07-17T06:05:52.002Z,59.38
2023-07-17T06:06:52.047Z,58.98
2023-07-17T06:07:52.081Z,59.28
2023-07-17T06:08:52.101Z,59.28
2023-07-17T06:09:52.138Z,59.08
2023-07-17T06:10:52.219Z,58.72
2023-07-17T06:11:52.206Z,58.59
2023-07-17T06:12:52.247Z,57.53
2023-07-17T06:13:52.277Z,58.40
2023-07-17T06:14:52.320Z,58.69
2023-07-17T06:15:52.360Z,58.89
2023-07-17T06:16:52.442Z,58.69
2023-07-17T06:17:52.443Z,58.98
2023-07-17T06:18:52.458Z,58.53
2023-07-17T06:19:52.487Z,58.40
2023-07-17T06:20:52.524Z,58.67
2023-07-17T06:21:52.588Z,58.28
2023-07-17T06:22:52.656Z,58.57
2023-07-17T06:23:52.626Z,58.64
2023-07-17T06:24:52.666Z,60.09
2023-07-17T06:25:52.701Z,60.87
2023-07-17T06:26:54.755Z,60.58
2023-07-17T06:27:52.769Z,60.58
2023-07-17T06:28:52.804Z,60.77
2023-07-17T06:29:52.849Z,60.48
2023-07-17T06:30:52.878Z,60.00
2023-07-17T06:31:52.977Z,60.19
2023-07-17T06:32:53.109Z,60.09
2023-07-17T06:33:52.983Z,59.87
2023-07-17T06:34:53.012Z,59.48
2023-07-17T06:35:53.056Z,60.16
2023-07-17T06:36:53.106Z,60.13
2023-07-17T06:37:53.123Z,60.68
2023-07-17T06:38:53.167Z,60.68
2023-07-17T06:39:53.196Z,61.46
2023-07-17T06:40:53.228Z,60.97
2023-07-17T06:41:53.268Z,62.13
2023-07-17T06:42:53.306Z,62.72
2023-07-17T06:43:53.339Z,61.65
2023-07-17T06:44:53.379Z,62.62
2023-07-17T06:45:53.423Z,62.43
2023-07-17T06:46:53.504Z,62.52
2023-07-17T06:47:53.562Z,61.65
2023-07-17T06:48:53.521Z,60.78
2023-07-17T06:49:53.550Z,60.88
2023-07-17T06:50:53.597Z,61.39
2023-07-17T06:51:53.619Z,60.71
2023-07-17T06:52:53.661Z,61.04
2023-07-17T06:53:53.690Z,60.55
2023-07-17T06:55:04.034Z,60.06
2023-07-17T06:55:53.766Z,58.54
2023-07-17T06:56:53.802Z,58.80
2023-07-17T06:57:53.832Z,58.19
2023-07-17T06:58:53.889Z,57.90
2023-07-17T06:59:53.908Z,57.39
2023-07-17T07:00:53.941Z,58.26
2023-07-17T07:01:56.971Z,58.62
2023-07-17T07:02:54.028Z,59.10
2023-07-17T07:03:54.080Z,59.78
2023-07-17T07:04:54.084Z,59.81
2023-07-17T07:05:54.124Z,59.91
2023-07-17T07:06:54.157Z,60.30
2023-07-17T07:07:54.200Z,59.84
2023-07-17T07:08:54.235Z,60.42
2023-07-17T07:09:54.278Z,59.94
2023-07-17T07:10:54.316Z,59.38
2023-07-17T07:11:54.338Z,58.80
2023-07-17T07:12:54.377Z,58.64
2023-07-17T07:13:54.417Z,56.40
2023-07-17T07:14:55.267Z,56.28
2023-07-17T07:15:54.531Z,56.37
2023-07-17T07:16:54.572Z,55.69
2023-07-17T07:17:54.628Z,55.11
2023-07-17T07:18:54.592Z,54.11
2023-07-17T07:19:54.642Z,55.26
2023-07-17T07:20:54.679Z,55.35
2023-07-17T07:21:54.715Z,56.03
2023-07-17T07:22:54.801Z,56.87
2023-07-17T07:23:54.777Z,57.07
2023-07-17T07:24:54.809Z,57.36
2023-07-17T07:25:54.855Z,58.01
2023-07-17T07:26:54.900Z,58.78
2023-07-17T07:27:54.921Z,59.69
2023-07-17T07:28:54.954Z,59.56
2023-07-17T07:29:54.994Z,59.07
2023-07-17T07:30:55.033Z,59.66
2023-07-17T07:31:55.150Z,60.11
2023-07-17T07:32:55.125Z,59.72
2023-07-17T07:33:55.137Z,60.21
2023-07-17T07:34:55.174Z,60.69
2023-07-17T07:35:55.209Z,60.57
2023-07-17T07:36:55.246Z,60.85
2023-07-17T07:37:55.297Z,60.85
2023-07-17T07:38:55.318Z,60.95
2023-07-17T07:39:55.344Z,60.85
2023-07-17T07:40:55.383Z,60.44
2023-07-17T07:41:55.413Z,60.44
2023-07-17T07:42:55.449Z,60.72
2023-07-17T07:43:55.479Z,60.82
2023-07-17T07:44:55.512Z,61.47
2023-07-17T07:45:55.582Z,61.57
2023-07-17T07:46:55.594Z,60.41
2023-07-17T07:47:55.618Z,60.41
2023-07-17T07:48:55.643Z,60.38
2023-07-17T07:49:55.672Z,60.67
2023-07-17T07:50:55.705Z,60.47
2023-07-17T07:51:55.748Z,61.15
2023-07-17T07:52:55.776Z,61.63
2023-07-17T07:53:55.798Z,62.12
2023-07-17T07:54:57.660Z,61.44
2023-07-17T07:55:55.866Z,62.28
2023-07-17T07:56:55.909Z,62.70
2023-07-17T07:57:55.934Z,63.18
2023-07-17T07:58:56.095Z,63.18
2023-07-17T07:59:56.001Z,64.14
2023-07-17T08:00:56.034Z,61.54
2023-07-17T08:01:56.069Z,59.89
2023-07-17T08:02:56.232Z,60.18
2023-07-17T08:03:56.148Z,60.38
2023-07-17T08:04:56.147Z,60.67
2023-07-17T08:05:56.189Z,60.38
2023-07-17T08:06:56.211Z,60.44
2023-07-17T08:07:56.237Z,60.44
2023-07-17T08:08:56.271Z,60.47
2023-07-17T08:09:56.316Z,61.15
2023-07-17T08:10:56.346Z,60.38
2023-07-17T08:11:56.365Z,60.47
2023-07-17T08:12:56.414Z,60.28
2023-07-17T08:13:56.440Z,60.47
2023-07-17T08:14:56.524Z,60.38
2023-07-17T08:15:56.525Z,59.70
2023-07-17T08:16:56.521Z,59.28
2023-07-17T08:17:56.602Z,59.96
2023-07-17T08:18:56.585Z,60.44
2023-07-17T08:19:56.618Z,60.06
2023-07-17T08:20:57.236Z,59.96
2023-07-17T08:21:56.679Z,60.64
2023-07-17T08:22:56.786Z,60.57
2023-07-17T08:23:56.737Z,60.18
2023-07-17T08:24:56.769Z,59.99
2023-07-17T08:25:56.848Z,60.06
2023-07-17T08:26:56.951Z,59.70
2023-07-17T08:27:56.903Z,59.96
2023-07-17T08:28:56.895Z,58.70
2023-07-17T08:29:56.937Z,59.58
2023-07-17T08:30:56.992Z,60.16
2023-07-17T08:31:58.467Z,60.44
2023-07-17T08:32:57.040Z,60.73
2023-07-17T08:33:57.051Z,60.35
2023-07-17T08:34:57.074Z,58.51
2023-07-17T08:35:57.134Z,58.90
2023-07-17T08:36:57.140Z,59.86
2023-07-17T08:37:57.168Z,59.77
2023-07-17T08:38:57.191Z,60.16
2023-07-17T08:39:57.235Z,59.48
2023-07-17T08:40:57.262Z,59.86
2023-07-17T08:41:57.287Z,59.67
2023-07-17T08:42:57.316Z,58.64
2023-07-17T08:43:57.351Z,58.35
2023-07-17T08:44:57.390Z,58.64
2023-07-17T08:45:59.588Z,58.54
2023-07-17T08:46:57.494Z,59.41
2023-07-17T08:47:57.513Z,59.02
2023-07-17T08:48:57.500Z,59.05
2023-07-17T08:49:57.534Z,58.37
2023-07-17T08:50:57.558Z,58.47
2023-07-17T08:51:57.616Z,58.25
2023-07-17T08:52:57.620Z,58.28
2023-07-17T08:54:13.369Z,58.28
2023-07-17T08:54:57.683Z,58.57
2023-07-17T08:55:57.712Z,59.15
2023-07-17T08:56:57.741Z,59.76
2023-07-17T08:57:57.785Z,58.50
2023-07-17T08:58:57.801Z,58.09
2023-07-17T08:59:57.838Z,57.54
2023-07-17T09:00:57.885Z,57.15
2023-07-17T09:01:57.898Z,56.35
2023-07-17T09:02:58.190Z,55.67
2023-07-17T09:03:57.956Z,56.25
2023-07-17T09:04:57.994Z,56.35
2023-07-17T09:05:58.021Z,55.67
2023-07-17T09:06:58.059Z,54.90
2023-07-17T09:07:58.085Z,54.03
2023-07-17T09:08:58.116Z,53.71
2023-07-17T09:09:58.146Z,54.10
2023-07-17T09:10:58.178Z,54.00
2023-07-17T09:11:58.251Z,54.77
2023-07-17T09:12:58.253Z,56.32
2023-07-17T09:13:58.273Z,56.32
2023-07-17T09:14:58.305Z,55.38
2023-07-17T09:15:58.334Z,55.26
2023-07-17T09:16:58.389Z,54.58
2023-07-17T09:17:58.448Z,54.58
2023-07-17T09:18:58.561Z,55.47
2023-07-17T09:19:58.450Z,56.35
2023-07-17T09:20:58.483Z,55.67
2023-07-17T09:21:58.531Z,56.25
2023-07-17T09:22:58.614Z,55.21
2023-07-17T09:23:58.581Z,54.53
2023-07-17T09:24:58.609Z,55.43
2023-07-17T09:26:05.786Z,54.95
2023-07-17T09:28:03.150Z,55.53
2023-07-17T09:29:02.685Z,53.69
2023-07-17T09:30:55.875Z,53.69
2023-07-17T09:31:55.862Z,53.59
2023-07-17T09:34:03.362Z,52.51
2023-07-17T09:34:59.911Z,52.39
2023-07-17T09:37:03.953Z,52.67
2023-07-17T09:38:03.971Z,53.42
2023-07-17T09:40:08.489Z,55.09
2023-07-17T09:41:08.034Z,55.09
2023-07-17T09:43:12.071Z,53.57
2023-07-17T09:44:12.078Z,53.50
2023-07-17T09:47:20.603Z,52.46
2023-07-17T09:48:20.126Z,51.50
2023-07-17T09:50:24.338Z,52.58
2023-07-17T09:51:24.182Z,51.81
2023-07-17T09:53:28.691Z,52.32
2023-07-17T09:54:28.239Z,52.03
2023-07-17T09:56:32.283Z,52.22
2023-07-17T09:57:32.302Z,52.44
2023-07-17T09:59:36.810Z,51.21
2023-07-17T10:00:36.373Z,49.44
2023-07-17T10:02:29.361Z,49.44
2023-07-17T10:03:29.376Z,50.12
2023-07-17T10:05:33.846Z,50.12
2023-07-17T10:06:33.427Z,49.54
2023-07-17T10:08:26.572Z,50.89
2023-07-17T10:09:26.588Z,51.09
2023-07-17T10:11:31.105Z,50.12
2023-07-17T10:12:30.661Z,50.21
2023-07-17T10:14:34.688Z,49.90
2023-07-17T10:15:34.711Z,50.16
2023-07-17T10:17:39.284Z,51.13
2023-07-17T10:18:38.772Z,51.50
2023-07-17T10:20:42.889Z,51.47
2023-07-17T10:21:42.831Z,51.76
2023-07-17T10:23:47.346Z,52.34
2023-07-17T10:24:46.903Z,52.34
2023-07-17T10:26:50.929Z,52.34
2023-07-17T10:27:50.953Z,51.37
2023-07-17T10:29:55.461Z,52.34
2023-07-17T10:30:55.060Z,51.73
2023-07-17T10:32:47.996Z,52.51
2023-07-17T10:33:47.984Z,52.02
2023-07-17T10:35:54.040Z,52.51
2023-07-17T10:36:52.039Z,52.61
2023-07-17T10:38:56.070Z,52.63
2023-07-17T10:39:56.092Z,53.02
2023-07-17T10:42:01.111Z,50.89
2023-07-17T10:43:00.147Z,51.47
2023-07-17T10:45:04.180Z,50.89
2023-07-17T10:46:04.273Z,51.08
2023-07-17T10:48:08.776Z,52.14
2023-07-17T10:49:08.257Z,51.95
2023-07-17T10:51:12.300Z,50.89
2023-07-17T10:52:12.323Z,50.98
2023-07-17T10:54:16.830Z,50.82
2023-07-17T10:55:16.412Z,51.59
2023-07-17T10:57:20.422Z,51.72
2023-07-17T10:58:20.433Z,51.42
2023-07-17T11:00:24.940Z,50.67
2023-07-17T11:01:24.501Z,51.16
2023-07-17T11:03:17.661Z,49.82
2023-07-17T11:04:17.711Z,50.60
2023-07-17T11:06:22.183Z,49.24
2023-07-17T11:07:21.725Z,48.85
2023-07-17T11:09:25.761Z,48.95
2023-07-17T11:10:25.781Z,48.76
2023-07-17T11:12:19.287Z,49.66
2023-07-17T11:13:18.755Z,49.56
2023-07-17T11:15:22.794Z,49.46
2023-07-17T11:16:22.803Z,49.46
2023-07-17T11:18:16.423Z,49.19
2023-07-17T11:19:15.992Z,48.61
2023-07-17T11:21:20.300Z,48.61
2023-07-17T11:22:20.081Z,48.03
2023-07-17T11:24:13.542Z,47.64
2023-07-17T11:25:13.222Z,48.00
2023-07-17T11:27:17.258Z,48.80
2023-07-17T11:28:17.290Z,47.64
2023-07-17T11:30:21.793Z,48.00
2023-07-17T11:31:21.562Z,47.52
2023-07-17T11:33:25.376Z,46.94
2023-07-17T11:34:25.399Z,47.91
2023-07-17T11:36:29.911Z,47.23
2023-07-17T11:37:29.459Z,46.84
2023-07-17T11:39:35.076Z,47.33
2023-07-17T11:40:33.515Z,47.13
2023-07-17T11:42:27.026Z,45.70
2023-07-17T11:43:26.492Z,45.61
2023-07-17T11:45:30.525Z,44.83
2023-07-17T11:46:30.642Z,44.83
2023-07-17T11:48:36.570Z,44.54
2023-07-17T11:49:34.604Z,44.71
2023-07-17T11:51:38.640Z,44.90
2023-07-17T11:52:38.673Z,44.90
2023-07-17T11:54:43.179Z,45.48
2023-07-17T11:55:42.715Z,45.97
2023-07-17T11:57:55.529Z,45.70
2023-07-17T11:58:46.780Z,45.29
2023-07-17T12:00:51.779Z,47.16
2023-07-17T12:01:50.896Z,46.77
2023-07-17T12:03:55.255Z,45.04
2023-07-17T12:04:55.071Z,45.92
2023-07-17T12:08:03.575Z,44.78
2023-07-17T12:09:03.135Z,44.68
2023-07-17T12:11:07.163Z,44.48
2023-07-17T12:12:07.183Z,43.71
2023-07-17T12:14:11.699Z,43.49
2023-07-17T12:15:11.237Z,44.65
2023-07-17T12:17:15.275Z,44.64
2023-07-17T12:18:15.315Z,45.12
2023-07-17T12:20:19.815Z,44.44
2023-07-17T12:21:24.262Z,44.83
2023-07-17T12:23:23.412Z,44.61
2023-07-17T12:24:23.426Z,44.78
2023-07-17T12:26:27.938Z,45.65
2023-07-17T12:27:30.383Z,46.24
2023-07-17T12:30:35.543Z,46.31
2023-07-17T12:31:35.572Z,47.28
2023-07-17T12:33:40.037Z,47.16
2023-07-17T12:34:40.435Z,47.55
2023-07-17T12:36:43.625Z,47.94
2023-07-17T12:37:43.649Z,48.71
2023-07-17T12:39:48.159Z,48.61
2023-07-17T12:40:47.707Z,48.03
2023-07-17T12:42:40.661Z,47.55
2023-07-17T12:43:40.685Z,47.84
2023-07-17T12:45:45.713Z,48.11
2023-07-17T12:46:44.739Z,48.69
2023-07-17T12:48:37.982Z,48.59
2023-07-17T12:49:37.919Z,48.47
2023-07-17T12:51:42.424Z,49.27
2023-07-17T12:52:41.972Z,48.97
2023-07-17T12:54:35.133Z,50.33
2023-07-17T12:55:35.168Z,49.95
2023-07-17T12:57:42.375Z,49.95
2023-07-17T12:58:39.209Z,49.17
2023-07-17T13:00:32.408Z,49.34
2023-07-17T13:01:32.417Z,49.34
2023-07-17T13:03:37.015Z,50.40
2023-07-17T13:04:36.680Z,51.47
2023-07-17T13:06:40.478Z,50.31
2023-07-17T13:07:40.492Z,51.28
2023-07-17T13:09:46.500Z,51.30
2023-07-17T13:10:44.550Z,49.85
2023-07-17T13:12:47.818Z,51.01
2023-07-17T13:13:37.525Z,50.35
2023-07-17T13:15:42.056Z,50.14
2023-07-17T13:16:41.578Z,51.20
2023-07-17T13:18:34.813Z,51.23
2023-07-17T13:19:34.759Z,51.52
2023-07-17T13:21:28.260Z,50.29
2023-07-17T13:22:27.952Z,50.87
2023-07-17T13:24:31.987Z,49.73
2023-07-17T13:25:32.000Z,49.82
2023-07-17T13:27:36.508Z,48.76
2023-07-17T13:28:36.055Z,48.64
2023-07-17T13:30:40.092Z,47.36
2023-07-17T13:31:40.195Z,48.13
2023-07-17T13:33:44.617Z,49.00
2023-07-17T13:34:44.164Z,50.07
2023-07-17T13:36:48.204Z,48.06
2023-07-17T13:37:48.271Z,45.54
2023-07-17T13:39:52.746Z,45.92
2023-07-17T13:40:52.286Z,46.92
2023-07-17T13:42:45.235Z,45.29
2023-07-17T13:43:45.250Z,44.71
2023-07-17T13:45:38.755Z,44.81
2023-07-17T13:46:38.497Z,44.71
2023-07-17T13:48:42.466Z,45.12
2023-07-17T13:49:42.490Z,45.51
2023-07-17T13:51:46.993Z,45.04
2023-07-17T13:52:46.543Z,43.88
2023-07-17T13:54:50.582Z,42.35
2023-07-17T13:55:50.598Z,42.83
2023-07-17T13:57:55.113Z,42.85
2023-07-17T13:58:54.657Z,42.44
2023-07-17T14:00:58.701Z,42.43
2023-07-17T14:01:58.788Z,42.52
2023-07-17T14:04:03.403Z,43.10
2023-07-17T14:05:02.783Z,43.40
2023-07-17T14:07:06.828Z,42.30
2023-07-17T14:08:06.848Z,42.11
2023-07-17T14:10:11.344Z,44.05
2023-07-17T14:11:10.900Z,43.40
2023-07-17T14:13:14.928Z,42.54
2023-07-17T14:14:15.026Z,42.33
2023-07-17T14:16:19.667Z,42.33
2023-07-17T14:17:19.008Z,42.52
2023-07-17T14:19:23.960Z,42.81
2023-07-17T14:20:23.076Z,42.71
2023-07-17T14:22:16.556Z,43.01
2023-07-17T14:23:16.092Z,42.33
2023-07-17T14:25:20.078Z,42.79
2023-07-17T14:26:20.584Z,43.08
2023-07-17T14:29:28.616Z,42.86
2023-07-17T14:30:28.144Z,43.37
2023-07-17T14:32:21.103Z,42.48
2023-07-17T14:33:21.131Z,42.29
2023-07-17T14:35:25.638Z,43.43
2023-07-17T14:36:25.178Z,43.33
2023-07-17T14:38:29.210Z,43.13
2023-07-17T14:39:29.235Z,43.62
2023-07-17T14:41:33.973Z,43.62
2023-07-17T14:42:33.337Z,43.82
2023-07-17T14:44:37.345Z,44.78
2023-07-17T14:45:37.354Z,44.40
2023-07-17T14:47:41.902Z,44.49
2023-07-17T14:48:41.412Z,44.78
2023-07-17T14:50:45.444Z,44.68
2023-07-17T14:51:45.459Z,44.40
2023-07-17T14:53:50.011Z,44.01
2023-07-17T14:54:49.515Z,44.20
2023-07-17T14:56:53.554Z,43.13
2023-07-17T14:57:53.597Z,43.72
2023-07-17T14:59:58.102Z,44.01
2023-07-17T15:00:57.685Z,44.20
2023-07-17T15:02:50.656Z,44.10
2023-07-17T15:03:50.631Z,43.62
2023-07-17T15:05:55.120Z,44.30
2023-07-17T15:06:54.665Z,44.40
2023-07-17T15:08:58.712Z,44.68
2023-07-17T15:09:58.718Z,44.78